createdAt,value
2023-05-04T00:00:10.328Z,5.74
2023-05-04T00:02:36.929Z,6.48
2023-05-04T00:05:06.256Z,6.41
2023-05-04T00:07:33.158Z,6.10
2023-05-04T00:10:00.174Z,6.05
2023-05-04T00:12:27.302Z,5.73
2023-05-04T00:14:53.836Z,5.94
2023-05-04T00:17:20.385Z,5.80
2023-05-04T00:19:46.948Z,5.76
2023-05-04T00:22:13.496Z,5.67
2023-05-04T00:24:40.036Z,5.66
2023-05-04T00:27:06.561Z,5.54
2023-05-04T00:29:33.149Z,5.95
2023-05-04T00:31:59.646Z,6.30
2023-05-04T00:34:26.329Z,6.34
2023-05-04T00:36:52.938Z,5.71
2023-05-04T00:39:19.592Z,6.13
2023-05-04T00:41:46.308Z,5.72
2023-05-04T00:44:13.001Z,5.67
2023-05-04T00:46:40.920Z,6.24
2023-05-04T00:49:08.846Z,6.21
2023-05-04T00:51:37.174Z,6.09
2023-05-04T00:54:04.930Z,5.55
2023-05-04T00:56:32.878Z,5.51
2023-05-04T00:58:59.404Z,5.82
2023-05-04T01:01:26.221Z,5.20
2023-05-04T01:03:55.182Z,5.22
2023-05-04T01:06:40.486Z,5.14
2023-05-04T01:09:23.683Z,5.56
2023-05-04T01:12:02.093Z,5.99
2023-05-04T01:14:30.761Z,6.02
2023-05-04T01:17:00.454Z,6.63
2023-05-04T01:19:29.134Z,5.96
2023-05-04T01:21:56.678Z,6.03
2023-05-04T01:24:26.660Z,6.40
2023-05-04T01:27:09.542Z,6.41
2023-05-04T01:29:58.336Z,5.90
2023-05-04T01:32:31.213Z,6.15
2023-05-04T01:35:00.023Z,6.10
2023-05-04T01:37:26.670Z,6.20
2023-05-04T01:39:53.176Z,5.77
2023-05-04T01:42:20.085Z,5.94
2023-05-04T01:44:46.794Z,6.07
2023-05-04T01:47:13.341Z,5.45
2023-05-04T01:49:40.496Z,5.79
2023-05-04T01:52:07.029Z,6.02
2023-05-04T01:54:33.651Z,6.02
2023-05-04T01:57:01.638Z,5.72
2023-05-04T01:59:28.125Z,5.72
2023-05-04T02:01:54.632Z,5.42
2023-05-04T02:04:21.202Z,5.58
2023-05-04T02:06:47.980Z,5.63
2023-05-04T02:09:14.668Z,5.28
2023-05-04T02:11:41.347Z,5.56
2023-05-04T02:14:07.819Z,5.88
2023-05-04T02:16:34.333Z,5.37
2023-05-04T02:19:00.938Z,5.35
2023-05-04T02:21:27.606Z,4.90
2023-05-04T02:23:54.254Z,5.51
2023-05-04T02:26:20.706Z,5.28
2023-05-04T02:28:47.252Z,5.48
2023-05-04T02:31:13.830Z,5.14
2023-05-04T02:33:40.414Z,5.48
2023-05-04T02:36:07.258Z,5.40
2023-05-04T02:38:33.732Z,5.50
2023-05-04T02:41:00.349Z,5.43
2023-05-04T02:43:26.959Z,5.75
2023-05-04T02:45:53.932Z,6.02
2023-05-04T02:48:20.609Z,5.97
2023-05-04T02:50:47.125Z,5.25
2023-05-04T02:53:13.680Z,5.59
2023-05-04T02:55:40.191Z,5.47
2023-05-04T02:58:07.500Z,5.53
2023-05-04T03:00:34.274Z,5.51
2023-05-04T03:03:01.250Z,5.61
2023-05-04T03:05:27.898Z,5.41
2023-05-04T03:07:54.385Z,5.39
2023-05-04T03:10:20.984Z,6.09
2023-05-04T03:12:47.706Z,5.48
2023-05-04T03:15:14.304Z,5.71
2023-05-04T03:17:41.042Z,5.34
2023-05-04T03:20:09.697Z,5.54
2023-05-04T03:22:40.818Z,5.45
2023-05-04T03:25:08.066Z,5.53
2023-05-04T03:27:34.630Z,5.68
2023-05-04T03:30:01.198Z,5.43
2023-05-04T03:32:32.239Z,5.60
2023-05-04T03:34:58.960Z,5.57
2023-05-04T03:37:25.666Z,5.59
2023-05-04T03:39:52.242Z,5.74
2023-05-04T03:42:18.734Z,5.27
2023-05-04T03:44:45.207Z,5.29
2023-05-04T03:47:11.867Z,5.21
2023-05-04T03:49:38.353Z,5.46
2023-05-04T03:52:08.595Z,5.50
2023-05-04T03:54:36.920Z,5.46
2023-05-04T03:57:04.373Z,5.03
2023-05-04T03:59:31.276Z,5.26
2023-05-04T04:01:57.793Z,5.06
2023-05-04T04:04:26.437Z,5.39
2023-05-04T04:06:53.175Z,5.41
2023-05-04T04:09:19.718Z,5.51
2023-05-04T04:11:46.322Z,5.53
2023-05-04T04:14:12.783Z,5.49
2023-05-04T04:16:39.484Z,5.52
2023-05-04T04:19:07.112Z,5.23
2023-05-04T04:21:34.108Z,5.08
2023-05-04T04:24:01.038Z,5.52
2023-05-04T04:26:28.354Z,5.58
2023-05-04T04:28:54.929Z,5.68
2023-05-04T04:31:21.917Z,5.84
2023-05-04T04:33:51.443Z,5.40
2023-05-04T04:36:18.320Z,5.50
2023-05-04T04:38:46.364Z,5.45
2023-05-04T04:41:13.442Z,5.16
2023-05-04T04:43:43.249Z,5.21
2023-05-04T04:46:11.274Z,5.23
2023-05-04T04:48:37.906Z,5.26
2023-05-04T04:51:11.482Z,6.12
2023-05-04T04:53:39.390Z,5.68
2023-05-04T04:56:08.186Z,5.86
2023-05-04T04:58:35.811Z,6.17
2023-05-04T05:01:05.071Z,5.97
2023-05-04T05:03:32.212Z,6.31
2023-05-04T05:06:01.627Z,7.21
2023-05-04T05:08:39.709Z,6.23
2023-05-04T05:11:06.823Z,7.00
2023-05-04T05:13:33.359Z,6.97
2023-05-04T05:16:00.058Z,6.35
2023-05-04T05:18:26.826Z,6.37
2023-05-04T05:20:53.410Z,6.86
2023-05-04T05:23:21.109Z,6.60
2023-05-04T05:25:47.812Z,6.78
2023-05-04T05:28:14.599Z,6.36
2023-05-04T05:30:52.572Z,6.48
2023-05-04T05:33:19.649Z,6.17
2023-05-04T05:35:46.303Z,6.33
2023-05-04T05:38:13.006Z,5.72
2023-05-04T05:40:40.052Z,5.32
2023-05-04T05:43:06.935Z,5.55
2023-05-04T05:45:33.471Z,6.08
2023-05-04T05:48:00.180Z,5.75
2023-05-04T05:50:26.712Z,5.87
2023-05-04T05:52:54.343Z,5.46
2023-05-04T05:55:24.077Z,5.79
2023-05-04T05:57:53.885Z,6.37
2023-05-04T06:00:20.977Z,5.98
2023-05-04T06:02:48.342Z,6.13
2023-05-04T06:05:15.585Z,5.78
2023-05-04T06:07:42.124Z,5.88
2023-05-04T06:10:09.533Z,6.14
2023-05-04T06:12:36.186Z,6.12
2023-05-04T06:15:03.894Z,6.03
2023-05-04T06:17:30.642Z,5.76
2023-05-04T06:19:57.373Z,5.67
2023-05-04T06:22:24.085Z,6.28
2023-05-04T06:24:51.130Z,5.93
2023-05-04T06:27:19.672Z,5.81
2023-05-04T06:29:46.610Z,5.67
2023-05-04T06:32:14.707Z,5.59
2023-05-04T06:34:41.294Z,5.96
2023-05-04T06:37:08.085Z,5.83
2023-05-04T06:39:34.661Z,5.87
2023-05-04T06:42:05.153Z,5.88
2023-05-04T06:44:37.981Z,5.91
2023-05-04T06:47:09.419Z,5.72
2023-05-04T06:49:36.242Z,5.72
2023-05-04T06:52:03.605Z,6.00
2023-05-04T06:54:31.682Z,5.97
2023-05-04T06:56:58.222Z,5.76
2023-05-04T06:59:24.717Z,5.98
2023-05-04T07:01:51.387Z,5.87
2023-05-04T07:04:21.608Z,6.00
2023-05-04T07:06:48.517Z,6.07
2023-05-04T07:09:15.158Z,6.25
2023-05-04T07:11:44.638Z,5.82
2023-05-04T07:14:11.368Z,5.78
2023-05-04T07:16:37.957Z,5.95
2023-05-04T07:19:04.742Z,6.06
2023-05-04T07:21:32.015Z,5.75
2023-05-04T07:23:59.026Z,6.23
2023-05-04T07:26:28.380Z,6.13
2023-05-04T07:28:56.028Z,6.03
2023-05-04T07:31:23.351Z,6.06
2023-05-04T07:33:49.848Z,5.98
2023-05-04T07:36:16.450Z,5.59
2023-05-04T07:38:42.907Z,6.19
2023-05-04T07:41:10.251Z,6.22
2023-05-04T07:43:36.786Z,6.18
2023-05-04T07:46:03.317Z,5.94
2023-05-04T07:48:29.906Z,5.79
2023-05-04T07:50:56.491Z,5.60
2023-05-04T07:53:25.262Z,5.75
2023-05-04T07:55:57.720Z,5.57
2023-05-04T07:58:24.324Z,5.81
2023-05-04T08:00:51.103Z,5.53
2023-05-04T08:03:17.645Z,6.05
2023-05-04T08:05:44.214Z,6.32
2023-05-04T08:08:11.163Z,5.67
2023-05-04T08:10:38.657Z,5.61
2023-05-04T08:13:05.693Z,5.54
2023-05-04T08:15:32.722Z,6.10
2023-05-04T08:17:59.249Z,6.06
2023-05-04T08:20:25.954Z,6.02
2023-05-04T08:22:54.404Z,6.16
2023-05-04T08:25:23.056Z,6.01
2023-05-04T08:27:50.111Z,5.40
2023-05-04T08:30:17.231Z,5.80
2023-05-04T08:32:44.047Z,6.14
2023-05-04T08:35:13.157Z,5.55
2023-05-04T08:37:40.913Z,5.64
2023-05-04T08:40:08.667Z,5.63
2023-05-04T08:42:35.492Z,5.51
2023-05-04T08:45:02.207Z,5.85
2023-05-04T08:47:29.688Z,5.49
2023-05-04T08:49:56.776Z,5.56
2023-05-04T08:52:26.317Z,5.36
2023-05-04T08:54:55.872Z,5.71
2023-05-04T08:57:25.451Z,5.80
2023-05-04T08:59:55.433Z,5.45
2023-05-04T09:02:29.446Z,5.79
2023-05-04T09:04:56.315Z,5.57
2023-05-04T09:07:24.058Z,5.53
2023-05-04T09:09:52.257Z,6.03
2023-05-04T09:12:19.348Z,5.63
2023-05-04T09:14:46.503Z,5.55
2023-05-04T09:17:25.106Z,5.56
2023-05-04T09:20:02.038Z,5.78
2023-05-04T09:22:30.286Z,6.23
2023-05-04T09:25:14.016Z,6.00
2023-05-04T09:27:42.632Z,6.24
2023-05-04T09:30:09.852Z,6.16
2023-05-04T09:32:47.524Z,5.85
2023-05-04T09:35:29.360Z,5.95
2023-05-04T09:38:01.669Z,5.98
2023-05-04T09:40:35.348Z,5.85
2023-05-04T09:43:02.342Z,5.88
2023-05-04T09:45:47.788Z,5.87
2023-05-04T09:48:26.819Z,5.65
2023-05-04T09:51:01.005Z,5.54
2023-05-04T09:53:30.487Z,5.67
2023-05-04T09:56:25.192Z,5.55
2023-05-04T09:58:57.820Z,5.79
2023-05-04T10:01:30.020Z,6.02
2023-05-04T10:03:57.961Z,5.77
2023-05-04T10:06:26.369Z,5.86
2023-05-04T10:08:54.054Z,5.90
2023-05-04T10:11:21.233Z,5.14
2023-05-04T10:13:49.496Z,5.42
2023-05-04T10:16:37.132Z,5.41
2023-05-04T10:19:44.052Z,5.17
2023-05-04T10:23:03.482Z,5.01
2023-05-04T10:25:40.999Z,4.94
2023-05-04T10:28:38.485Z,4.69
2023-05-04T10:31:07.379Z,4.89
2023-05-04T10:33:43.137Z,4.93
2023-05-04T10:36:11.623Z,4.78
2023-05-04T10:38:41.846Z,4.65
2023-05-04T10:41:19.217Z,4.31
2023-05-04T10:43:53.391Z,4.34
2023-05-04T10:46:22.894Z,4.19
2023-05-04T10:48:51.188Z,4.20
2023-05-04T10:51:21.166Z,4.22
2023-05-04T10:53:48.052Z,3.97
2023-05-04T10:56:29.736Z,4.18
2023-05-04T10:59:08.825Z,3.90
2023-05-04T11:01:44.818Z,4.04
2023-05-04T11:04:27.751Z,4.05
2023-05-04T11:07:05.405Z,3.96
2023-05-04T11:09:38.929Z,3.66
2023-05-04T11:12:07.347Z,3.98
2023-05-04T11:14:37.978Z,3.91
2023-05-04T11:17:26.588Z,3.91
2023-05-04T11:19:53.932Z,3.62
2023-05-04T11:22:20.875Z,4.10
2023-05-04T11:24:49.125Z,4.06
2023-05-04T11:27:31.351Z,3.73
2023-05-04T11:30:01.053Z,4.05
2023-05-04T11:32:52.059Z,4.07
2023-05-04T11:35:22.792Z,4.11
2023-05-04T11:37:50.661Z,4.34
2023-05-04T11:40:22.688Z,4.27
2023-05-04T11:42:55.525Z,4.36
2023-05-04T11:45:31.136Z,4.67
2023-05-04T11:47:59.773Z,4.23
2023-05-04T11:50:29.780Z,4.54
2023-05-04T11:53:13.941Z,4.44
2023-05-04T11:55:41.984Z,4.31
2023-05-04T11:58:12.169Z,4.21
2023-05-04T12:00:44.157Z,4.35
2023-05-04T12:03:15.358Z,4.66
2023-05-04T12:05:49.551Z,4.32
2023-05-04T12:08:27.398Z,4.24
2023-05-04T12:11:17.142Z,4.20
2023-05-04T12:13:45.778Z,4.33
2023-05-04T12:16:15.962Z,4.11
2023-05-04T12:18:45.193Z,4.13
2023-05-04T12:21:17.736Z,4.39
2023-05-04T12:23:46.978Z,4.38
2023-05-04T12:26:15.358Z,4.38
2023-05-04T12:28:43.005Z,4.46
2023-05-04T12:31:10.141Z,4.29
2023-05-04T12:33:36.715Z,4.74
2023-05-04T12:36:06.152Z,5.20
2023-05-04T12:38:34.498Z,4.70
2023-05-04T12:41:06.051Z,4.73
2023-05-04T12:43:33.485Z,4.77
2023-05-04T12:46:02.296Z,4.99
2023-05-04T12:48:32.684Z,5.01
2023-05-04T12:51:02.079Z,4.85
2023-05-04T12:53:32.542Z,5.43
2023-05-04T12:56:01.366Z,5.56
2023-05-04T12:58:28.753Z,5.14
2023-05-04T13:00:57.642Z,5.92
2023-05-04T13:03:24.396Z,5.21
2023-05-04T13:05:52.565Z,5.64
2023-05-04T13:08:19.867Z,5.78
2023-05-04T13:10:47.103Z,5.43
2023-05-04T13:13:17.261Z,5.08
2023-05-04T13:15:44.945Z,5.28
2023-05-04T13:18:12.732Z,5.46
2023-05-04T13:20:40.318Z,5.59
2023-05-04T13:23:07.811Z,6.09
2023-05-04T13:25:34.757Z,6.02
2023-05-04T13:28:01.408Z,5.66
2023-05-04T13:30:28.500Z,5.07
2023-05-04T13:32:55.631Z,5.25
2023-05-04T13:35:23.777Z,5.92
2023-05-04T13:37:50.856Z,5.73
2023-05-04T13:40:19.690Z,5.48
2023-05-04T13:42:46.475Z,5.46
2023-05-04T13:45:13.076Z,5.16
2023-05-04T13:47:40.603Z,5.06
2023-05-04T13:50:08.311Z,5.30
2023-05-04T13:52:35.947Z,5.09
2023-05-04T13:55:04.199Z,4.74
2023-05-04T13:57:31.206Z,4.91
2023-05-04T14:00:07.113Z,4.75
2023-05-04T14:02:35.111Z,4.53
2023-05-04T14:05:04.148Z,4.74
2023-05-04T14:07:31.203Z,4.98
2023-05-04T14:09:59.347Z,4.69
2023-05-04T14:12:28.489Z,4.93
2023-05-04T14:14:55.759Z,4.74
2023-05-04T14:17:22.593Z,4.79
2023-05-04T14:19:49.079Z,4.87
2023-05-04T14:22:15.892Z,4.64
2023-05-04T14:24:44.237Z,4.67
2023-05-04T14:27:16.062Z,4.84
2023-05-04T14:29:42.664Z,4.81
2023-05-04T14:32:09.509Z,4.86
2023-05-04T14:34:36.448Z,4.94
2023-05-04T14:37:02.972Z,5.04
2023-05-04T14:39:29.380Z,4.85
2023-05-04T14:41:57.172Z,5.10
2023-05-04T14:44:25.896Z,4.82
2023-05-04T14:46:52.374Z,5.01
2023-05-04T14:49:36.774Z,4.97
2023-05-04T14:52:06.615Z,5.07
2023-05-04T14:54:33.284Z,5.43
2023-05-04T14:57:00.098Z,5.29
2023-05-04T14:59:26.793Z,5.55
2023-05-04T15:01:55.040Z,5.56
2023-05-04T15:04:22.053Z,5.02
2023-05-04T15:06:50.361Z,5.38
2023-05-04T15:09:16.841Z,5.04
2023-05-04T15:11:43.304Z,5.25
2023-05-04T15:14:09.763Z,5.23
2023-05-04T15:16:36.331Z,5.37
2023-05-04T15:19:05.142Z,5.20
2023-05-04T15:21:31.751Z,5.17
2023-05-04T15:23:58.269Z,5.40
2023-05-04T15:26:24.993Z,5.62
2023-05-04T15:28:53.814Z,5.42
2023-05-04T15:31:21.355Z,5.64
2023-05-04T15:33:48.671Z,5.61
2023-05-04T15:36:15.182Z,5.01
2023-05-04T15:38:43.572Z,5.40
2023-05-04T15:41:10.217Z,5.26
2023-05-04T15:43:36.765Z,5.42
2023-05-04T15:46:03.268Z,5.49
2023-05-04T15:48:29.869Z,5.57
2023-05-04T15:50:56.652Z,5.28
2023-05-04T15:53:23.526Z,5.59
2023-05-04T15:55:51.095Z,5.27
2023-05-04T15:58:18.729Z,5.15
2023-05-04T16:00:46.061Z,5.33
2023-05-04T16:03:12.904Z,5.59
2023-05-04T16:05:39.453Z,5.34
2023-05-04T16:08:05.949Z,5.17
2023-05-04T16:10:33.229Z,5.11
2023-05-04T16:13:03.824Z,4.81
2023-05-04T16:15:31.137Z,5.12
2023-05-04T16:17:57.910Z,5.14
2023-05-04T16:20:25.904Z,5.32
2023-05-04T16:22:52.489Z,5.93
2023-05-04T16:25:19.433Z,5.64
2023-05-04T16:27:47.235Z,5.75
2023-05-04T16:30:15.852Z,5.58
2023-05-04T16:32:42.546Z,5.78
2023-05-04T16:35:11.328Z,5.81
2023-05-04T16:37:39.883Z,5.52
2023-05-04T16:40:14.083Z,5.47
2023-05-04T16:42:42.603Z,5.39
2023-05-04T16:45:12.090Z,5.70
2023-05-04T16:47:38.877Z,5.79
2023-05-04T16:50:07.610Z,5.43
2023-05-04T16:52:34.551Z,5.82
2023-05-04T16:55:01.042Z,5.62
2023-05-04T16:57:27.695Z,5.81
2023-05-04T16:59:55.104Z,5.96
2023-05-04T17:02:21.922Z,6.09
2023-05-04T17:04:48.541Z,5.92
2023-05-04T17:07:15.141Z,5.60
2023-05-04T17:09:41.566Z,6.01
2023-05-04T17:12:08.220Z,6.17
2023-05-04T17:14:35.179Z,6.04
2023-05-04T17:17:01.659Z,6.03
2023-05-04T17:19:28.102Z,6.29
2023-05-04T17:21:54.859Z,6.28
2023-05-04T17:24:21.514Z,6.49
2023-05-04T17:26:48.433Z,6.08
2023-05-04T17:29:15.040Z,6.09
2023-05-04T17:31:41.614Z,6.21
2023-05-04T17:34:08.243Z,6.06
2023-05-04T17:36:34.790Z,6.12
2023-05-04T17:39:01.295Z,5.82
2023-05-04T17:41:27.879Z,5.88
2023-05-04T17:43:55.727Z,5.89
2023-05-04T17:46:23.419Z,5.94
2023-05-04T17:48:50.094Z,6.17
2023-05-04T17:51:16.873Z,6.18
2023-05-04T17:53:43.335Z,5.96
2023-05-04T17:56:09.949Z,5.64
2023-05-04T17:58:36.354Z,6.02
2023-05-04T18:01:03.357Z,5.55
2023-05-04T18:03:30.001Z,5.48
2023-05-04T18:05:56.550Z,5.81
2023-05-04T18:08:26.238Z,5.81
2023-05-04T18:10:53.363Z,5.82
2023-05-04T18:13:20.110Z,5.62
2023-05-04T18:15:47.424Z,6.22
2023-05-04T18:18:14.004Z,5.81
2023-05-04T18:20:40.663Z,5.43
2023-05-04T18:23:07.708Z,5.77
2023-05-04T18:25:37.235Z,5.57
2023-05-04T18:28:03.876Z,5.86
2023-05-04T18:30:30.356Z,5.74
2023-05-04T18:32:56.908Z,6.18
2023-05-04T18:35:23.471Z,6.21
2023-05-04T18:37:50.096Z,6.28
2023-05-04T18:40:16.569Z,6.24
2023-05-04T18:42:45.708Z,5.90
2023-05-04T18:45:12.540Z,6.10
2023-05-04T18:47:39.031Z,6.19
2023-05-04T18:50:06.920Z,6.26
2023-05-04T18:52:34.662Z,6.43
2023-05-04T18:55:01.339Z,6.15
2023-05-04T18:57:29.942Z,6.06
2023-05-04T18:59:57.145Z,6.74
2023-05-04T19:02:25.919Z,6.42
2023-05-04T19:04:52.537Z,6.67
2023-05-04T19:07:19.062Z,6.59
2023-05-04T19:09:45.990Z,6.66
2023-05-04T19:12:12.653Z,6.33
2023-05-04T19:14:40.419Z,5.96
2023-05-04T19:17:07.349Z,6.18
2023-05-04T19:19:36.859Z,6.55
2023-05-04T19:22:04.771Z,6.63
2023-05-04T19:24:34.372Z,6.51
2023-05-04T19:27:00.972Z,6.35
2023-05-04T19:29:28.238Z,6.71
2023-05-04T19:31:54.999Z,6.57
2023-05-04T19:34:21.789Z,6.14
2023-05-04T19:36:48.262Z,6.20
2023-05-04T19:39:16.583Z,6.63
2023-05-04T19:41:43.293Z,6.07
2023-05-04T19:44:10.248Z,5.95
2023-05-04T19:46:37.346Z,6.05
2023-05-04T19:49:04.492Z,6.05
2023-05-04T19:51:32.761Z,6.00
2023-05-04T19:53:59.584Z,6.77
2023-05-04T19:56:26.244Z,6.71
2023-05-04T19:58:52.918Z,6.55
2023-05-04T20:01:19.506Z,6.65
2023-05-04T20:03:46.148Z,7.13
2023-05-04T20:06:13.204Z,6.95
2023-05-04T20:08:39.727Z,7.17
2023-05-04T20:11:06.165Z,7.13
2023-05-04T20:13:32.847Z,7.30
2023-05-04T20:15:59.352Z,7.24
2023-05-04T20:18:26.122Z,7.35
2023-05-04T20:20:52.676Z,6.99
2023-05-04T20:23:19.171Z,7.21
2023-05-04T20:25:46.124Z,7.06
2023-05-04T20:28:12.633Z,7.43
2023-05-04T20:30:39.315Z,7.41
2023-05-04T20:33:06.135Z,7.39
2023-05-04T20:35:32.964Z,7.01
2023-05-04T20:37:59.555Z,7.08
2023-05-04T20:40:26.371Z,7.05
2023-05-04T20:42:52.834Z,7.15
2023-05-04T20:45:19.330Z,7.11
2023-05-04T20:47:45.885Z,7.13
2023-05-04T20:50:12.553Z,7.13
2023-05-04T20:52:39.103Z,7.18
2023-05-04T20:55:07.917Z,7.45
2023-05-04T20:57:35.202Z,7.47
2023-05-04T21:00:02.258Z,7.64
2023-05-04T21:02:28.871Z,7.54
2023-05-04T21:04:55.500Z,7.56
2023-05-04T21:07:21.953Z,7.42
2023-05-04T21:09:48.376Z,7.37
2023-05-04T21:12:15.031Z,7.18
2023-05-04T21:14:41.544Z,7.34
2023-05-04T21:17:08.382Z,7.91
2023-05-04T21:19:34.876Z,7.10
2023-05-04T21:22:01.314Z,7.31
2023-05-04T21:24:27.825Z,7.74
2023-05-04T21:26:54.338Z,7.54
2023-05-04T21:29:20.838Z,7.09
2023-05-04T21:31:47.489Z,7.66
2023-05-04T21:34:13.966Z,7.90
2023-05-04T21:36:41.559Z,7.91
2023-05-04T21:39:08.034Z,7.66
2023-05-04T21:41:34.426Z,7.67
2023-05-04T21:44:00.928Z,7.81
2023-05-04T21:46:27.798Z,7.75
2023-05-04T21:48:54.367Z,7.57
2023-05-04T21:51:21.159Z,7.90
2023-05-04T21:53:47.904Z,8.05
2023-05-04T21:56:14.471Z,7.29
2023-05-04T21:58:41.120Z,7.67
2023-05-04T22:01:08.289Z,7.23
2023-05-04T22:03:35.622Z,7.30
2023-05-04T22:06:02.459Z,7.28
2023-05-04T22:08:29.198Z,7.52
2023-05-04T22:10:58.884Z,6.74
2023-05-04T22:13:26.079Z,7.35
2023-05-04T22:15:53.655Z,7.57
2023-05-04T22:18:20.857Z,7.44
2023-05-04T22:20:48.387Z,7.69
2023-05-04T22:23:15.421Z,7.59
2023-05-04T22:25:41.906Z,7.50
2023-05-04T22:28:08.497Z,7.30
2023-05-04T22:30:35.293Z,7.44
2023-05-04T22:33:02.050Z,7.17
2023-05-04T22:35:30.308Z,6.86
2023-05-04T22:37:56.804Z,7.47
2023-05-04T22:40:23.317Z,7.17
2023-05-04T22:42:49.880Z,7.65
2023-05-04T22:45:18.094Z,7.24
2023-05-04T22:47:45.615Z,7.18
2023-05-04T22:50:13.404Z,7.12
2023-05-04T22:52:40.204Z,7.83
2023-05-04T22:55:08.645Z,7.81
2023-05-04T22:57:35.717Z,8.24
2023-05-04T23:00:05.739Z,8.18
2023-05-04T23:02:32.798Z,8.19
2023-05-04T23:05:00.410Z,7.99
2023-05-04T23:07:27.128Z,8.30
2023-05-04T23:09:53.544Z,7.89
2023-05-04T23:12:19.991Z,8.15
2023-05-04T23:14:52.179Z,7.85
2023-05-04T23:17:19.554Z,8.05
2023-05-04T23:19:45.981Z,8.46
2023-05-04T23:22:12.656Z,7.72
2023-05-04T23:24:39.326Z,7.68
2023-05-04T23:27:06.169Z,8.53
2023-05-04T23:29:32.667Z,7.53
2023-05-04T23:31:59.421Z,8.08
2023-05-04T23:34:26.087Z,8.08
2023-05-04T23:36:54.436Z,8.32
2023-05-04T23:39:21.017Z,8.63
2023-05-04T23:41:47.492Z,8.06
2023-05-04T23:44:13.969Z,8.38
2023-05-04T23:46:40.517Z,8.13
2023-05-04T23:49:06.967Z,8.04
2023-05-04T23:51:33.605Z,8.37
2023-05-04T23:54:00.111Z,8.45
2023-05-04T23:56:26.638Z,8.66
2023-05-04T23:58:53.963Z,9.00
